sensor_id;sensor_type;location;lat;lon;timestamp;P1;durP1;ratioP1;P2;durP2;ratioP2
54929;SDS011;40833;53.238;6.576;2022-12-10T00:02:11;70.53;;;31.07;;
54929;SDS011;40833;53.238;6.576;2022-12-10T00:04:36;71.93;;;31.70;;
54929;SDS011;40833;53.238;6.576;2022-12-10T00:07:02;75.93;;;32.47;;
54929;SDS011;40833;53.238;6.576;2022-12-10T00:09:28;75.40;;;32.07;;
54929;SDS011;40833;53.238;6.576;2022-12-10T00:11:54;72.23;;;32.40;;
54929;SDS011;40833;53.238;6.576;2022-12-10T00:14:19;74.77;;;32.90;;
54929;SDS011;40833;53.238;6.576;2022-12-10T00:16:45;76.43;;;32.43;;
54929;SDS011;40833;53.238;6.576;2022-12-10T00:19:11;73.60;;;31.57;;
54929;SDS011;40833;53.238;6.576;2022-12-10T00:21:36;76.23;;;32.40;;
54929;SDS011;40833;53.238;6.576;2022-12-10T00:24:02;69.80;;;30.87;;
54929;SDS011;40833;53.238;6.576;2022-12-10T00:26:30;80.70;;;33.63;;
54929;SDS011;40833;53.238;6.576;2022-12-10T00:28:59;75.67;;;31.17;;
54929;SDS011;40833;53.238;6.576;2022-12-10T00:31:27;76.00;;;32.70;;
54929;SDS011;40833;53.238;6.576;2022-12-10T00:33:54;78.13;;;32.73;;
54929;SDS011;40833;53.238;6.576;2022-12-10T00:36:22;77.17;;;33.33;;
54929;SDS011;40833;53.238;6.576;2022-12-10T00:38:52;77.23;;;34.27;;
54929;SDS011;40833;53.238;6.576;2022-12-10T00:41:17;74.10;;;34.17;;
54929;SDS011;40833;53.238;6.576;2022-12-10T00:43:43;87.53;;;34.93;;
54929;SDS011;40833;53.238;6.576;2022-12-10T00:46:10;84.83;;;34.33;;
54929;SDS011;40833;53.238;6.576;2022-12-10T00:48:37;85.27;;;34.13;;
54929;SDS011;40833;53.238;6.576;2022-12-10T00:51:10;83.67;;;35.23;;
54929;SDS011;40833;53.238;6.576;2022-12-10T00:53:38;87.33;;;37.30;;
54929;SDS011;40833;53.238;6.576;2022-12-10T00:56:05;94.23;;;39.27;;
54929;SDS011;40833;53.238;6.576;2022-12-10T00:58:32;83.93;;;35.80;;
54929;SDS011;40833;53.238;6.576;2022-12-10T01:03:43;88.33;;;37.37;;
54929;SDS011;40833;53.238;6.576;2022-12-10T01:06:14;83.43;;;35.53;;
54929;SDS011;40833;53.238;6.576;2022-12-10T01:08:43;91.15;;;39.22;;
54929;SDS011;40833;53.238;6.576;2022-12-10T01:11:09;88.00;;;37.47;;
54929;SDS011;40833;53.238;6.576;2022-12-10T01:13:36;87.07;;;38.33;;
54929;SDS011;40833;53.238;6.576;2022-12-10T01:16:03;82.87;;;36.10;;
54929;SDS011;40833;53.238;6.576;2022-12-10T01:18:30;89.60;;;37.37;;
54929;SDS011;40833;53.238;6.576;2022-12-10T01:20:59;87.40;;;36.90;;
54929;SDS011;40833;53.238;6.576;2022-12-10T01:23:27;90.73;;;37.83;;
54929;SDS011;40833;53.238;6.576;2022-12-10T01:25:52;93.10;;;38.73;;
54929;SDS011;40833;53.238;6.576;2022-12-10T01:28:18;89.07;;;35.87;;
54929;SDS011;40833;53.238;6.576;2022-12-10T01:30:44;91.07;;;36.93;;
54929;SDS011;40833;53.238;6.576;2022-12-10T01:33:09;89.03;;;37.47;;
54929;SDS011;40833;53.238;6.576;2022-12-10T01:35:36;85.70;;;35.93;;
54929;SDS011;40833;53.238;6.576;2022-12-10T01:38:02;97.20;;;35.67;;
54929;SDS011;40833;53.238;6.576;2022-12-10T01:40:28;84.73;;;38.23;;
54929;SDS011;40833;53.238;6.576;2022-12-10T01:42:55;96.97;;;37.93;;
54929;SDS011;40833;53.238;6.576;2022-12-10T01:45:21;84.53;;;36.03;;
54929;SDS011;40833;53.238;6.576;2022-12-10T01:47:47;90.33;;;36.77;;
54929;SDS011;40833;53.238;6.576;2022-12-10T01:50:12;100.03;;;39.30;;
54929;SDS011;40833;53.238;6.576;2022-12-10T01:52:38;95.70;;;38.30;;
54929;SDS011;40833;53.238;6.576;2022-12-10T01:55:07;96.03;;;37.67;;
54929;SDS011;40833;53.238;6.576;2022-12-10T01:57:53;104.70;;;39.63;;
54929;SDS011;40833;53.238;6.576;2022-12-10T02:00:18;105.03;;;39.03;;
54929;SDS011;40833;53.238;6.576;2022-12-10T02:02:55;91.70;;;38.80;;
54929;SDS011;40833;53.238;6.576;2022-12-10T02:05:38;96.93;;;39.77;;
54929;SDS011;40833;53.238;6.576;2022-12-10T02:13:39;90.43;;;37.93;;
54929;SDS011;40833;53.238;6.576;2022-12-10T02:16:18;97.23;;;39.60;;
54929;SDS011;40833;53.238;6.576;2022-12-10T02:19:00;95.60;;;38.47;;
54929;SDS011;40833;53.238;6.576;2022-12-10T02:21:49;101.50;;;39.90;;
54929;SDS011;40833;53.238;6.576;2022-12-10T02:24:19;98.10;;;41.13;;
54929;SDS011;40833;53.238;6.576;2022-12-10T02:29:19;89.87;;;37.03;;
54929;SDS011;40833;53.238;6.576;2022-12-10T02:31:48;107.67;;;39.40;;
54929;SDS011;40833;53.238;6.576;2022-12-10T02:34:18;100.83;;;40.10;;
54929;SDS011;40833;53.238;6.576;2022-12-10T02:36:47;92.43;;;35.87;;
54929;SDS011;40833;53.238;6.576;2022-12-10T02:39:18;94.80;;;40.60;;
54929;SDS011;40833;53.238;6.576;2022-12-10T02:41:50;100.60;;;39.63;;
54929;SDS011;40833;53.238;6.576;2022-12-10T02:44:18;99.07;;;40.67;;
54929;SDS011;40833;53.238;6.576;2022-12-10T02:46:45;106.43;;;40.07;;
54929;SDS011;40833;53.238;6.576;2022-12-10T02:49:14;105.73;;;42.57;;
54929;SDS011;40833;53.238;6.576;2022-12-10T02:51:41;101.13;;;38.70;;
54929;SDS011;40833;53.238;6.576;2022-12-10T02:54:33;97.83;;;42.23;;
54929;SDS011;40833;53.238;6.576;2022-12-10T02:57:11;99.80;;;37.70;;
54929;SDS011;40833;53.238;6.576;2022-12-10T03:00:14;102.50;;;40.90;;
54929;SDS011;40833;53.238;6.576;2022-12-10T03:05:22;92.57;;;37.10;;
54929;SDS011;40833;53.238;6.576;2022-12-10T03:08:08;94.10;;;37.90;;
54929;SDS011;40833;53.238;6.576;2022-12-10T03:10:55;104.37;;;40.40;;
54929;SDS011;40833;53.238;6.576;2022-12-10T03:16:14;97.60;;;39.07;;
54929;SDS011;40833;53.238;6.576;2022-12-10T03:18:41;101.03;;;40.23;;
54929;SDS011;40833;53.238;6.576;2022-12-10T03:21:09;92.10;;;39.47;;
54929;SDS011;40833;53.238;6.576;2022-12-10T03:23:37;109.10;;;40.50;;
54929;SDS011;40833;53.238;6.576;2022-12-10T03:26:05;102.37;;;42.80;;
54929;SDS011;40833;53.238;6.576;2022-12-10T03:28:34;105.33;;;42.93;;
54929;SDS011;40833;53.238;6.576;2022-12-10T03:31:06;100.10;;;41.57;;
54929;SDS011;40833;53.238;6.576;2022-12-10T03:33:34;100.53;;;40.17;;
54929;SDS011;40833;53.238;6.576;2022-12-10T03:35:59;99.07;;;41.07;;
54929;SDS011;40833;53.238;6.576;2022-12-10T03:38:25;109.27;;;41.97;;
54929;SDS011;40833;53.238;6.576;2022-12-10T03:40:51;100.40;;;40.17;;
54929;SDS011;40833;53.238;6.576;2022-12-10T03:43:17;105.10;;;41.87;;
54929;SDS011;40833;53.238;6.576;2022-12-10T03:45:42;106.70;;;42.50;;
54929;SDS011;40833;53.238;6.576;2022-12-10T03:48:08;101.77;;;40.47;;
54929;SDS011;40833;53.238;6.576;2022-12-10T03:50:34;103.27;;;41.63;;
54929;SDS011;40833;53.238;6.576;2022-12-10T03:52:59;105.70;;;41.77;;
54929;SDS011;40833;53.238;6.576;2022-12-10T03:55:25;109.10;;;40.63;;
54929;SDS011;40833;53.238;6.576;2022-12-10T03:57:51;102.03;;;41.53;;
54929;SDS011;40833;53.238;6.576;2022-12-10T04:00:16;106.40;;;41.17;;
54929;SDS011;40833;53.238;6.576;2022-12-10T04:02:42;108.30;;;42.03;;
54929;SDS011;40833;53.238;6.576;2022-12-10T04:05:08;107.57;;;40.23;;
54929;SDS011;40833;53.238;6.576;2022-12-10T04:07:33;96.53;;;40.77;;
54929;SDS011;40833;53.238;6.576;2022-12-10T04:09:59;98.30;;;41.53;;
54929;SDS011;40833;53.238;6.576;2022-12-10T04:12:25;102.80;;;40.50;;
54929;SDS011;40833;53.238;6.576;2022-12-10T04:14:51;101.43;;;42.40;;
54929;SDS011;40833;53.238;6.576;2022-12-10T04:17:35;107.60;;;40.40;;
54929;SDS011;40833;53.238;6.576;2022-12-10T04:20:01;103.77;;;41.23;;
54929;SDS011;40833;53.238;6.576;2022-12-10T04:22:26;108.67;;;40.50;;
54929;SDS011;40833;53.238;6.576;2022-12-10T04:25:11;96.60;;;41.00;;
54929;SDS011;40833;53.238;6.576;2022-12-10T04:27:55;105.27;;;43.30;;
54929;SDS011;40833;53.238;6.576;2022-12-10T04:30:21;106.30;;;41.73;;
54929;SDS011;40833;53.238;6.576;2022-12-10T04:32:47;106.87;;;41.77;;
54929;SDS011;40833;53.238;6.576;2022-12-10T04:35:13;99.37;;;39.57;;
54929;SDS011;40833;53.238;6.576;2022-12-10T04:37:39;106.10;;;42.63;;
54929;SDS011;40833;53.238;6.576;2022-12-10T04:40:05;104.57;;;41.67;;
54929;SDS011;40833;53.238;6.576;2022-12-10T04:42:31;114.23;;;42.50;;
54929;SDS011;40833;53.238;6.576;2022-12-10T04:44:57;107.17;;;41.17;;
54929;SDS011;40833;53.238;6.576;2022-12-10T04:47:23;105.07;;;41.03;;
54929;SDS011;40833;53.238;6.576;2022-12-10T04:49:49;106.37;;;40.57;;
54929;SDS011;40833;53.238;6.576;2022-12-10T04:52:15;96.87;;;40.93;;
54929;SDS011;40833;53.238;6.576;2022-12-10T04:54:41;110.97;;;42.57;;
54929;SDS011;40833;53.238;6.576;2022-12-10T04:57:08;111.27;;;42.30;;
54929;SDS011;40833;53.238;6.576;2022-12-10T04:59:35;115.03;;;41.83;;
54929;SDS011;40833;53.238;6.576;2022-12-10T05:02:01;109.83;;;42.07;;
54929;SDS011;40833;53.238;6.576;2022-12-10T05:04:28;110.80;;;41.87;;
54929;SDS011;40833;53.238;6.576;2022-12-10T05:06:53;114.93;;;42.70;;
54929;SDS011;40833;53.238;6.576;2022-12-10T05:09:19;120.00;;;42.63;;
54929;SDS011;40833;53.238;6.576;2022-12-10T05:11:45;112.20;;;41.00;;
54929;SDS011;40833;53.238;6.576;2022-12-10T05:14:11;107.10;;;40.50;;
54929;SDS011;40833;53.238;6.576;2022-12-10T05:16:38;120.93;;;44.53;;
54929;SDS011;40833;53.238;6.576;2022-12-10T05:19:03;105.60;;;42.27;;
54929;SDS011;40833;53.238;6.576;2022-12-10T05:21:29;131.17;;;44.00;;
54929;SDS011;40833;53.238;6.576;2022-12-10T05:24:14;135.43;;;47.00;;
54929;SDS011;40833;53.238;6.576;2022-12-10T05:26:40;126.30;;;45.27;;
54929;SDS011;40833;53.238;6.576;2022-12-10T05:29:07;129.60;;;46.47;;
54929;SDS011;40833;53.238;6.576;2022-12-10T05:31:33;136.47;;;46.73;;
54929;SDS011;40833;53.238;6.576;2022-12-10T05:33:59;134.67;;;43.57;;
54929;SDS011;40833;53.238;6.576;2022-12-10T05:36:26;130.83;;;43.93;;
54929;SDS011;40833;53.238;6.576;2022-12-10T05:38:53;159.43;;;45.80;;
54929;SDS011;40833;53.238;6.576;2022-12-10T05:41:22;140.10;;;44.60;;
54929;SDS011;40833;53.238;6.576;2022-12-10T05:43:49;157.80;;;47.03;;
54929;SDS011;40833;53.238;6.576;2022-12-10T05:46:16;149.57;;;44.63;;
54929;SDS011;40833;53.238;6.576;2022-12-10T05:48:43;146.37;;;46.23;;
54929;SDS011;40833;53.238;6.576;2022-12-10T05:51:10;156.47;;;46.30;;
54929;SDS011;40833;53.238;6.576;2022-12-10T05:53:38;151.67;;;46.20;;
54929;SDS011;40833;53.238;6.576;2022-12-10T05:56:11;132.63;;;45.97;;
54929;SDS011;40833;53.238;6.576;2022-12-10T05:58:39;142.97;;;44.70;;
54929;SDS011;40833;53.238;6.576;2022-12-10T06:01:06;152.17;;;46.17;;
54929;SDS011;40833;53.238;6.576;2022-12-10T06:03:33;205.77;;;49.50;;
54929;SDS011;40833;53.238;6.576;2022-12-10T06:05:59;159.80;;;47.73;;
54929;SDS011;40833;53.238;6.576;2022-12-10T06:08:25;146.77;;;44.37;;
54929;SDS011;40833;53.238;6.576;2022-12-10T06:10:50;164.73;;;49.77;;
54929;SDS011;40833;53.238;6.576;2022-12-10T06:13:16;218.77;;;49.93;;
54929;SDS011;40833;53.238;6.576;2022-12-10T06:15:42;245.77;;;50.20;;
54929;SDS011;40833;53.238;6.576;2022-12-10T06:18:08;183.43;;;44.17;;
54929;SDS011;40833;53.238;6.576;2022-12-10T06:20:37;234.33;;;48.27;;
54929;SDS011;40833;53.238;6.576;2022-12-10T06:23:04;193.47;;;45.00;;
54929;SDS011;40833;53.238;6.576;2022-12-10T06:25:30;222.00;;;44.77;;
54929;SDS011;40833;53.238;6.576;2022-12-10T06:27:56;208.47;;;45.23;;
54929;SDS011;40833;53.238;6.576;2022-12-10T06:30:22;380.53;;;48.83;;
54929;SDS011;40833;53.238;6.576;2022-12-10T06:32:48;430.70;;;49.10;;
54929;SDS011;40833;53.238;6.576;2022-12-10T06:35:13;352.80;;;51.17;;
54929;SDS011;40833;53.238;6.576;2022-12-10T06:37:39;382.33;;;47.63;;
54929;SDS011;40833;53.238;6.576;2022-12-10T06:40:05;418.97;;;46.10;;
54929;SDS011;40833;53.238;6.576;2022-12-10T06:42:31;324.27;;;46.83;;
54929;SDS011;40833;53.238;6.576;2022-12-10T06:44:56;261.70;;;46.90;;
54929;SDS011;40833;53.238;6.576;2022-12-10T06:47:22;259.80;;;44.70;;
54929;SDS011;40833;53.238;6.576;2022-12-10T06:49:48;329.27;;;49.07;;
54929;SDS011;40833;53.238;6.576;2022-12-10T06:52:14;400.73;;;47.70;;
54929;SDS011;40833;53.238;6.576;2022-12-10T06:54:39;432.07;;;47.63;;
54929;SDS011;40833;53.238;6.576;2022-12-10T06:57:05;459.57;;;47.07;;
54929;SDS011;40833;53.238;6.576;2022-12-10T06:59:31;274.23;;;40.23;;
54929;SDS011;40833;53.238;6.576;2022-12-10T07:01:57;428.87;;;45.13;;
54929;SDS011;40833;53.238;6.576;2022-12-10T07:04:22;322.00;;;37.43;;
54929;SDS011;40833;53.238;6.576;2022-12-10T07:06:48;236.30;;;38.47;;
54929;SDS011;40833;53.238;6.576;2022-12-10T07:09:14;280.87;;;41.83;;
54929;SDS011;40833;53.238;6.576;2022-12-10T07:11:39;225.10;;;38.00;;
54929;SDS011;40833;53.238;6.576;2022-12-10T07:14:05;243.23;;;39.30;;
54929;SDS011;40833;53.238;6.576;2022-12-10T07:16:32;262.47;;;39.60;;
54929;SDS011;40833;53.238;6.576;2022-12-10T07:18:58;327.33;;;41.17;;
54929;SDS011;40833;53.238;6.576;2022-12-10T07:21:27;239.73;;;39.13;;
54929;SDS011;40833;53.238;6.576;2022-12-10T07:23:55;282.03;;;42.97;;
54929;SDS011;40833;53.238;6.576;2022-12-10T07:26:30;437.50;;;48.37;;
54929;SDS011;40833;53.238;6.576;2022-12-10T07:29:00;282.73;;;40.23;;
54929;SDS011;40833;53.238;6.576;2022-12-10T07:31:27;283.63;;;39.93;;
54929;SDS011;40833;53.238;6.576;2022-12-10T07:33:53;415.90;;;44.57;;
54929;SDS011;40833;53.238;6.576;2022-12-10T07:36:22;313.63;;;39.87;;
54929;SDS011;40833;53.238;6.576;2022-12-10T07:38:48;198.40;;;42.10;;
54929;SDS011;40833;53.238;6.576;2022-12-10T07:41:14;226.30;;;40.40;;
54929;SDS011;40833;53.238;6.576;2022-12-10T07:43:40;168.43;;;38.90;;
54929;SDS011;40833;53.238;6.576;2022-12-10T07:46:14;194.93;;;40.43;;
54929;SDS011;40833;53.238;6.576;2022-12-10T07:48:44;144.57;;;36.87;;
54929;SDS011;40833;53.238;6.576;2022-12-10T07:51:10;189.87;;;39.70;;
54929;SDS011;40833;53.238;6.576;2022-12-10T07:53:37;139.47;;;40.50;;
54929;SDS011;40833;53.238;6.576;2022-12-10T07:56:03;215.33;;;39.17;;
54929;SDS011;40833;53.238;6.576;2022-12-10T07:58:30;132.33;;;36.73;;
54929;SDS011;40833;53.238;6.576;2022-12-10T08:00:56;230.23;;;39.43;;
54929;SDS011;40833;53.238;6.576;2022-12-10T08:03:21;296.60;;;38.33;;
54929;SDS011;40833;53.238;6.576;2022-12-10T08:05:48;203.47;;;38.07;;
54929;SDS011;40833;53.238;6.576;2022-12-10T08:08:25;239.03;;;38.50;;
54929;SDS011;40833;53.238;6.576;2022-12-10T08:10:50;188.20;;;38.23;;
54929;SDS011;40833;53.238;6.576;2022-12-10T08:13:16;273.87;;;38.63;;
54929;SDS011;40833;53.238;6.576;2022-12-10T08:15:42;233.93;;;40.10;;
54929;SDS011;40833;53.238;6.576;2022-12-10T08:18:07;341.37;;;38.13;;
54929;SDS011;40833;53.238;6.576;2022-12-10T08:20:33;240.17;;;37.40;;
54929;SDS011;40833;53.238;6.576;2022-12-10T08:23:00;431.10;;;41.33;;
54929;SDS011;40833;53.238;6.576;2022-12-10T08:25:26;260.90;;;37.77;;
54929;SDS011;40833;53.238;6.576;2022-12-10T08:27:52;284.60;;;38.80;;
54929;SDS011;40833;53.238;6.576;2022-12-10T08:30:17;253.00;;;39.00;;
54929;SDS011;40833;53.238;6.576;2022-12-10T08:32:43;269.33;;;38.87;;
54929;SDS011;40833;53.238;6.576;2022-12-10T08:35:09;310.03;;;35.33;;
54929;SDS011;40833;53.238;6.576;2022-12-10T08:37:34;218.80;;;33.33;;
54929;SDS011;40833;53.238;6.576;2022-12-10T08:40:00;172.13;;;33.33;;
54929;SDS011;40833;53.238;6.576;2022-12-10T08:42:26;184.20;;;33.20;;
54929;SDS011;40833;53.238;6.576;2022-12-10T08:44:51;127.43;;;28.90;;
54929;SDS011;40833;53.238;6.576;2022-12-10T08:47:17;136.00;;;34.47;;
54929;SDS011;40833;53.238;6.576;2022-12-10T08:49:43;120.00;;;32.40;;
54929;SDS011;40833;53.238;6.576;2022-12-10T08:52:09;129.73;;;31.73;;
54929;SDS011;40833;53.238;6.576;2022-12-10T08:54:34;126.10;;;32.50;;
54929;SDS011;40833;53.238;6.576;2022-12-10T08:57:00;265.23;;;33.07;;
54929;SDS011;40833;53.238;6.576;2022-12-10T08:59:26;279.67;;;32.13;;
54929;SDS011;40833;53.238;6.576;2022-12-10T09:01:52;401.27;;;35.93;;
54929;SDS011;40833;53.238;6.576;2022-12-10T09:04:18;227.43;;;33.93;;
54929;SDS011;40833;53.238;6.576;2022-12-10T09:06:43;213.23;;;31.73;;
54929;SDS011;40833;53.238;6.576;2022-12-10T09:09:09;195.77;;;32.30;;
54929;SDS011;40833;53.238;6.576;2022-12-10T09:11:35;177.20;;;31.07;;
54929;SDS011;40833;53.238;6.576;2022-12-10T09:14:01;258.90;;;33.00;;
54929;SDS011;40833;53.238;6.576;2022-12-10T09:16:36;207.93;;;29.70;;
54929;SDS011;40833;53.238;6.576;2022-12-10T09:19:04;187.80;;;30.03;;
54929;SDS011;40833;53.238;6.576;2022-12-10T09:21:30;184.50;;;31.47;;
54929;SDS011;40833;53.238;6.576;2022-12-10T09:23:57;175.57;;;30.93;;
54929;SDS011;40833;53.238;6.576;2022-12-10T09:26:23;210.97;;;30.77;;
54929;SDS011;40833;53.238;6.576;2022-12-10T09:28:49;127.43;;;29.70;;
54929;SDS011;40833;53.238;6.576;2022-12-10T09:31:16;154.07;;;34.03;;
54929;SDS011;40833;53.238;6.576;2022-12-10T09:33:43;229.07;;;35.27;;
54929;SDS011;40833;53.238;6.576;2022-12-10T09:36:10;130.77;;;33.37;;
54929;SDS011;40833;53.238;6.576;2022-12-10T09:38:38;135.33;;;34.83;;
54929;SDS011;40833;53.238;6.576;2022-12-10T09:43:57;100.47;;;32.43;;
54929;SDS011;40833;53.238;6.576;2022-12-10T09:51:48;124.73;;;34.83;;
54929;SDS011;40833;53.238;6.576;2022-12-10T09:54:18;113.77;;;34.13;;
54929;SDS011;40833;53.238;6.576;2022-12-10T09:56:50;129.43;;;34.57;;
54929;SDS011;40833;53.238;6.576;2022-12-10T09:59:18;144.73;;;35.37;;
54929;SDS011;40833;53.238;6.576;2022-12-10T10:01:49;114.63;;;34.73;;
54929;SDS011;40833;53.238;6.576;2022-12-10T10:04:21;111.47;;;34.93;;
54929;SDS011;40833;53.238;6.576;2022-12-10T10:06:46;91.67;;;32.13;;
54929;SDS011;40833;53.238;6.576;2022-12-10T10:09:12;113.20;;;32.83;;
54929;SDS011;40833;53.238;6.576;2022-12-10T10:11:39;89.97;;;31.10;;
54929;SDS011;40833;53.238;6.576;2022-12-10T10:14:13;141.10;;;36.30;;
54929;SDS011;40833;53.238;6.576;2022-12-10T10:19:26;92.87;;;32.00;;
54929;SDS011;40833;53.238;6.576;2022-12-10T10:21:55;110.57;;;35.17;;
54929;SDS011;40833;53.238;6.576;2022-12-10T10:24:37;89.63;;;32.90;;
54929;SDS011;40833;53.238;6.576;2022-12-10T10:29:41;80.93;;;30.37;;
54929;SDS011;40833;53.238;6.576;2022-12-10T10:32:19;86.88;;;31.42;;
54929;SDS011;40833;53.238;6.576;2022-12-10T10:34:51;86.30;;;30.90;;
54929;SDS011;40833;53.238;6.576;2022-12-10T10:37:20;78.40;;;31.05;;
54929;SDS011;40833;53.238;6.576;2022-12-10T10:39:55;82.97;;;30.97;;
54929;SDS011;40833;53.238;6.576;2022-12-10T10:42:42;72.60;;;30.03;;
54929;SDS011;40833;53.238;6.576;2022-12-10T10:48:11;63.33;;;26.63;;
54929;SDS011;40833;53.238;6.576;2022-12-10T10:50:43;57.63;;;25.97;;
54929;SDS011;40833;53.238;6.576;2022-12-10T10:55:59;52.57;;;23.37;;
54929;SDS011;40833;53.238;6.576;2022-12-10T11:04:37;47.50;;;23.07;;
54929;SDS011;40833;53.238;6.576;2022-12-10T11:07:19;52.97;;;22.57;;
54929;SDS011;40833;53.238;6.576;2022-12-10T11:09:51;50.77;;;24.10;;
54929;SDS011;40833;53.238;6.576;2022-12-10T11:12:28;53.17;;;24.33;;
54929;SDS011;40833;53.238;6.576;2022-12-10T11:14:54;61.33;;;26.00;;
54929;SDS011;40833;53.238;6.576;2022-12-10T11:17:21;50.73;;;24.13;;
54929;SDS011;40833;53.238;6.576;2022-12-10T11:22:48;49.63;;;23.33;;
54929;SDS011;40833;53.238;6.576;2022-12-10T11:25:15;53.97;;;23.83;;
54929;SDS011;40833;53.238;6.576;2022-12-10T11:27:47;50.00;;;22.57;;
54929;SDS011;40833;53.238;6.576;2022-12-10T11:30:20;55.20;;;24.03;;
54929;SDS011;40833;53.238;6.576;2022-12-10T11:32:56;54.87;;;23.30;;
54929;SDS011;40833;53.238;6.576;2022-12-10T11:35:59;52.63;;;25.10;;
54929;SDS011;40833;53.238;6.576;2022-12-10T11:38:54;58.70;;;25.97;;
54929;SDS011;40833;53.238;6.576;2022-12-10T11:44:29;57.03;;;25.37;;
54929;SDS011;40833;53.238;6.576;2022-12-10T11:50:27;58.03;;;24.40;;
54929;SDS011;40833;53.238;6.576;2022-12-10T11:58:32;67.17;;;26.83;;
54929;SDS011;40833;53.238;6.576;2022-12-10T12:09:50;65.17;;;25.73;;
54929;SDS011;40833;53.238;6.576;2022-12-10T12:20:58;71.87;;;27.17;;
54929;SDS011;40833;53.238;6.576;2022-12-10T12:23:28;81.70;;;28.93;;
54929;SDS011;40833;53.238;6.576;2022-12-10T12:26:13;78.57;;;29.27;;
54929;SDS011;40833;53.238;6.576;2022-12-10T12:28:56;96.20;;;28.07;;
54929;SDS011;40833;53.238;6.576;2022-12-10T12:31:39;78.63;;;27.47;;
54929;SDS011;40833;53.238;6.576;2022-12-10T12:34:21;84.67;;;30.73;;
54929;SDS011;40833;53.238;6.576;2022-12-10T12:36:52;82.60;;;31.33;;
54929;SDS011;40833;53.238;6.576;2022-12-10T12:39:21;91.67;;;31.63;;
54929;SDS011;40833;53.238;6.576;2022-12-10T12:41:57;89.80;;;30.83;;
54929;SDS011;40833;53.238;6.576;2022-12-10T12:44:52;81.53;;;29.83;;
54929;SDS011;40833;53.238;6.576;2022-12-10T12:47:41;97.75;;;29.30;;
54929;SDS011;40833;53.238;6.576;2022-12-10T12:50:24;119.13;;;31.27;;
54929;SDS011;40833;53.238;6.576;2022-12-10T12:53:00;87.47;;;30.10;;
54929;SDS011;40833;53.238;6.576;2022-12-10T12:58:17;89.30;;;27.90;;
54929;SDS011;40833;53.238;6.576;2022-12-10T13:00:50;96.73;;;27.67;;
54929;SDS011;40833;53.238;6.576;2022-12-10T13:05:55;115.23;;;28.17;;
54929;SDS011;40833;53.238;6.576;2022-12-10T13:13:40;159.57;;;30.87;;
54929;SDS011;40833;53.238;6.576;2022-12-10T13:19:24;99.50;;;30.70;;
54929;SDS011;40833;53.238;6.576;2022-12-10T13:22:11;137.98;;;31.13;;
54929;SDS011;40833;53.238;6.576;2022-12-10T13:25:10;129.27;;;32.50;;
54929;SDS011;40833;53.238;6.576;2022-12-10T13:27:42;94.20;;;29.87;;
54929;SDS011;40833;53.238;6.576;2022-12-10T13:30:34;136.33;;;31.37;;
54929;SDS011;40833;53.238;6.576;2022-12-10T13:33:12;98.57;;;30.40;;
54929;SDS011;40833;53.238;6.576;2022-12-10T13:35:55;109.13;;;31.53;;
54929;SDS011;40833;53.238;6.576;2022-12-10T13:38:24;106.15;;;32.50;;
54929;SDS011;40833;53.238;6.576;2022-12-10T13:40:59;87.33;;;29.23;;
54929;SDS011;40833;53.238;6.576;2022-12-10T13:44:24;89.87;;;28.77;;
54929;SDS011;40833;53.238;6.576;2022-12-10T13:49:46;142.23;;;30.63;;
54929;SDS011;40833;53.238;6.576;2022-12-10T13:52:26;113.33;;;31.60;;
54929;SDS011;40833;53.238;6.576;2022-12-10T14:06:09;147.47;;;31.33;;
54929;SDS011;40833;53.238;6.576;2022-12-10T14:09:27;120.60;;;31.17;;
54929;SDS011;40833;53.238;6.576;2022-12-10T14:12:04;104.17;;;32.17;;
54929;SDS011;40833;53.238;6.576;2022-12-10T14:14:47;115.83;;;29.80;;
54929;SDS011;40833;53.238;6.576;2022-12-10T14:17:20;109.07;;;30.57;;
54929;SDS011;40833;53.238;6.576;2022-12-10T14:19:49;111.70;;;31.00;;
54929;SDS011;40833;53.238;6.576;2022-12-10T14:22:21;121.93;;;29.83;;
54929;SDS011;40833;53.238;6.576;2022-12-10T14:25:01;126.03;;;34.47;;
54929;SDS011;40833;53.238;6.576;2022-12-10T14:27:31;104.30;;;31.65;;
54929;SDS011;40833;53.238;6.576;2022-12-10T14:30:03;117.70;;;31.17;;
54929;SDS011;40833;53.238;6.576;2022-12-10T14:32:41;116.47;;;29.80;;
54929;SDS011;40833;53.238;6.576;2022-12-10T14:35:12;117.20;;;31.50;;
54929;SDS011;40833;53.238;6.576;2022-12-10T14:37:40;117.57;;;33.77;;
54929;SDS011;40833;53.238;6.576;2022-12-10T14:40:19;183.00;;;35.50;;
54929;SDS011;40833;53.238;6.576;2022-12-10T14:42:49;93.03;;;32.80;;
54929;SDS011;40833;53.238;6.576;2022-12-10T14:45:17;109.73;;;31.40;;
54929;SDS011;40833;53.238;6.576;2022-12-10T14:47:44;107.03;;;32.90;;
54929;SDS011;40833;53.238;6.576;2022-12-10T14:50:12;103.47;;;29.50;;
54929;SDS011;40833;53.238;6.576;2022-12-10T14:52:40;89.13;;;28.60;;
54929;SDS011;40833;53.238;6.576;2022-12-10T14:55:12;101.23;;;28.73;;
54929;SDS011;40833;53.238;6.576;2022-12-10T14:57:40;87.53;;;29.93;;
54929;SDS011;40833;53.238;6.576;2022-12-10T15:00:17;81.40;;;26.83;;
54929;SDS011;40833;53.238;6.576;2022-12-10T15:02:53;71.82;;;24.85;;
54929;SDS011;40833;53.238;6.576;2022-12-10T15:05:28;74.47;;;25.47;;
54929;SDS011;40833;53.238;6.576;2022-12-10T15:08:07;87.73;;;27.27;;
54929;SDS011;40833;53.238;6.576;2022-12-10T15:10:40;92.93;;;28.92;;
54929;SDS011;40833;53.238;6.576;2022-12-10T15:13:16;114.20;;;28.67;;
54929;SDS011;40833;53.238;6.576;2022-12-10T15:15:47;97.67;;;26.43;;
54929;SDS011;40833;53.238;6.576;2022-12-10T15:18:28;89.90;;;28.23;;
54929;SDS011;40833;53.238;6.576;2022-12-10T15:21:11;121.10;;;30.57;;
54929;SDS011;40833;53.238;6.576;2022-12-10T15:23:44;119.73;;;32.27;;
54929;SDS011;40833;53.238;6.576;2022-12-10T15:28:45;91.20;;;25.97;;
54929;SDS011;40833;53.238;6.576;2022-12-10T15:33:54;156.30;;;58.10;;
54929;SDS011;40833;53.238;6.576;2022-12-10T15:36:41;81.53;;;24.70;;
54929;SDS011;40833;53.238;6.576;2022-12-10T15:41:48;54.23;;;19.93;;
54929;SDS011;40833;53.238;6.576;2022-12-10T15:47:09;71.53;;;21.17;;
54929;SDS011;40833;53.238;6.576;2022-12-10T15:49:48;66.20;;;20.23;;
54929;SDS011;40833;53.238;6.576;2022-12-10T15:52:22;78.53;;;23.17;;
54929;SDS011;40833;53.238;6.576;2022-12-10T15:54:53;91.77;;;25.10;;
54929;SDS011;40833;53.238;6.576;2022-12-10T15:57:21;81.93;;;22.73;;
54929;SDS011;40833;53.238;6.576;2022-12-10T15:59:49;73.13;;;22.63;;
54929;SDS011;40833;53.238;6.576;2022-12-10T16:07:48;78.10;;;26.70;;
54929;SDS011;40833;53.238;6.576;2022-12-10T16:10:16;97.57;;;27.97;;
54929;SDS011;40833;53.238;6.576;2022-12-10T16:13:18;112.77;;;29.70;;
54929;SDS011;40833;53.238;6.576;2022-12-10T16:15:50;131.00;;;31.98;;
54929;SDS011;40833;53.238;6.576;2022-12-10T16:20:44;231.33;;;36.10;;
54929;SDS011;40833;53.238;6.576;2022-12-10T16:23:10;132.30;;;35.10;;
54929;SDS011;40833;53.238;6.576;2022-12-10T16:25:39;144.20;;;35.53;;
54929;SDS011;40833;53.238;6.576;2022-12-10T16:28:16;234.67;;;35.83;;
54929;SDS011;40833;53.238;6.576;2022-12-10T16:30:50;192.20;;;34.07;;
54929;SDS011;40833;53.238;6.576;2022-12-10T16:33:18;139.67;;;32.87;;